Flight Briefing for CPX237

Departure Arrival
March Air Reserve Base (KRIV)
Click to view FAA NOTAMS
Washington Dulles International Airport (KIAD)
Click to view FAA NOTAMS
Departure Time Arrival Time
N/A N/A
Aircraft Distance
B767-300BDSF 1970nm
Departure METAR Arrival METAR
KRIV 221133Z AUTO 00000KT 10SM FEW019 SCT024 BKN045 08/08 A3013 RMK AO2 SLP203 KIAD 221052Z 31020G26KT 10SM SCT024 BKN030 OVC045 07/01 A2961 RMK AO2 PK WND 32026/1050 SLP028 T00670011
Suggested Route
TRM PKE J78 DRK J96 GUP J8 FTI MMB PER SGF J98 FAM J78 HVQ GIBBZ2


View recent IFR Routes data
Notes



Charts and Procedures

Charts for KRIV
No chart available
Charts for KIAD
No chart available

Windy.com Weather Map